createdAt,value
2023-01-23T00:01:36.450Z,12.97
2023-01-23T00:04:04.952Z,11.77
2023-01-23T00:06:32.826Z,11.03
2023-01-23T00:09:00.413Z,12.50
2023-01-23T00:11:30.368Z,13.13
2023-01-23T00:14:00.197Z,12.47
2023-01-23T00:16:31.714Z,13.20
2023-01-23T00:19:00.189Z,11.23
2023-01-23T00:21:29.860Z,13.90
2023-01-23T00:23:59.985Z,9.50
2023-01-23T00:26:30.328Z,13.73
2023-01-23T00:28:57.885Z,10.97
2023-01-23T00:31:29.173Z,12.67
2023-01-23T00:34:01.627Z,13.13
2023-01-23T00:36:33.271Z,11.87
2023-01-23T00:39:04.081Z,9.93
2023-01-23T00:41:31.651Z,11.30
2023-01-23T00:43:59.120Z,12.90
2023-01-23T00:46:26.742Z,11.23
2023-01-23T00:48:54.339Z,14.63
2023-01-23T00:51:22.051Z,14.93
2023-01-23T00:53:49.770Z,12.07
2023-01-23T00:56:17.336Z,9.47
2023-01-23T00:58:45.497Z,11.27
2023-01-23T01:01:15.392Z,14.43
2023-01-23T01:03:44.429Z,14.93
2023-01-23T01:06:13.220Z,14.90
2023-01-23T01:08:41.240Z,14.83
2023-01-23T01:11:09.033Z,10.47
2023-01-23T01:13:37.322Z,13.10
2023-01-23T01:16:05.893Z,13.90
2023-01-23T01:18:33.635Z,11.17
2023-01-23T01:21:01.497Z,13.03
2023-01-23T01:23:29.449Z,12.90
2023-01-23T01:26:00.890Z,12.93
2023-01-23T01:28:33.225Z,12.97
2023-01-23T01:31:15.961Z,13.07
2023-01-23T01:33:44.753Z,11.93
2023-01-23T01:36:23.240Z,10.10
2023-01-23T01:38:51.471Z,10.70
2023-01-23T01:41:19.043Z,12.80
2023-01-23T01:43:46.867Z,12.83
2023-01-23T01:46:20.208Z,17.23
2023-01-23T01:49:07.891Z,12.67
2023-01-23T01:51:52.189Z,15.93
2023-01-23T01:54:39.165Z,11.57
2023-01-23T01:57:27.419Z,12.70
2023-01-23T01:59:59.854Z,18.97
2023-01-23T02:02:43.900Z,14.53
2023-01-23T02:05:44.075Z,15.30
2023-01-23T02:08:48.182Z,9.80
2023-01-23T02:11:18.558Z,10.87
2023-01-23T02:13:46.632Z,13.80
2023-01-23T02:16:20.937Z,15.80
2023-01-23T02:18:53.876Z,12.93
2023-01-23T02:21:25.520Z,13.97
2023-01-23T02:24:20.605Z,12.47
2023-01-23T02:26:48.544Z,11.03
2023-01-23T02:29:19.238Z,13.60
2023-01-23T02:31:56.303Z,13.13
2023-01-23T02:34:26.162Z,13.80
2023-01-23T02:36:59.174Z,12.47
2023-01-23T02:39:27.645Z,13.47
2023-01-23T02:41:57.815Z,14.57
2023-01-23T02:44:39.207Z,11.30
2023-01-23T02:47:12.417Z,16.63
2023-01-23T02:49:42.904Z,14.77
2023-01-23T02:52:11.491Z,14.43
2023-01-23T02:54:40.793Z,11.83
2023-01-23T02:57:09.204Z,13.13
2023-01-23T02:59:55.193Z,15.23
2023-01-23T03:02:24.190Z,11.97
2023-01-23T03:04:51.679Z,12.40
2023-01-23T03:07:20.352Z,10.30
2023-01-23T03:09:48.825Z,10.90
2023-01-23T03:12:17.152Z,13.07
2023-01-23T03:14:44.779Z,13.53
2023-01-23T03:17:14.924Z,10.57
2023-01-23T03:19:42.909Z,15.13
2023-01-23T03:22:10.439Z,14.50
2023-01-23T03:24:39.841Z,12.97
2023-01-23T03:27:07.696Z,13.07
2023-01-23T03:30:04.337Z,16.40
2023-01-23T03:32:32.134Z,13.23
2023-01-23T03:34:59.970Z,15.67
2023-01-23T03:37:27.643Z,12.70
2023-01-23T03:40:18.659Z,16.00
2023-01-23T03:42:46.305Z,11.87
2023-01-23T03:45:16.412Z,11.37
2023-01-23T03:47:44.119Z,14.73
2023-01-23T03:50:11.994Z,15.53
2023-01-23T03:52:40.397Z,14.87
2023-01-23T03:55:09.028Z,16.87
2023-01-23T03:57:37.527Z,13.20
2023-01-23T04:00:16.953Z,16.60
2023-01-23T04:02:50.874Z,18.90
2023-01-23T04:05:18.839Z,21.37
2023-01-23T04:07:46.332Z,14.93
2023-01-23T04:10:15.500Z,16.80
2023-01-23T04:12:46.978Z,14.33
2023-01-23T04:15:14.544Z,13.40
2023-01-23T04:17:42.662Z,15.90
2023-01-23T04:20:11.659Z,12.57
2023-01-23T04:22:41.117Z,15.03
2023-01-23T04:25:10.180Z,14.27
2023-01-23T04:27:37.656Z,14.50
2023-01-23T04:30:06.768Z,12.50
2023-01-23T04:32:35.728Z,14.37
2023-01-23T04:35:03.861Z,16.37
2023-01-23T04:37:32.068Z,12.07
2023-01-23T04:40:01.108Z,15.60
2023-01-23T04:42:32.179Z,12.03
2023-01-23T04:45:12.457Z,15.50
2023-01-23T04:48:00.232Z,20.30
2023-01-23T04:50:28.358Z,13.33
2023-01-23T04:52:56.741Z,11.47
2023-01-23T04:55:24.833Z,19.77
2023-01-23T04:57:52.319Z,14.17
2023-01-23T05:00:24.762Z,14.80
2023-01-23T05:02:53.197Z,18.00
2023-01-23T05:05:23.803Z,15.23
2023-01-23T05:07:53.759Z,14.33
2023-01-23T05:10:21.752Z,14.70
2023-01-23T05:12:50.244Z,15.00
2023-01-23T05:15:18.103Z,14.57
2023-01-23T05:17:47.545Z,13.50
2023-01-23T05:20:15.276Z,13.57
2023-01-23T05:22:52.642Z,12.50
2023-01-23T05:25:29.118Z,17.47
2023-01-23T05:27:58.431Z,15.73
2023-01-23T05:30:27.267Z,20.07
2023-01-23T05:33:06.391Z,17.17
2023-01-23T05:35:33.969Z,14.13
2023-01-23T05:38:02.014Z,20.90
2023-01-23T05:40:32.921Z,16.77
2023-01-23T05:43:16.479Z,17.10
2023-01-23T05:46:02.985Z,13.90
2023-01-23T05:48:44.701Z,14.17
2023-01-23T05:51:12.714Z,16.53
2023-01-23T05:53:40.324Z,15.43
2023-01-23T05:56:09.490Z,14.03
2023-01-23T05:58:47.554Z,17.77
2023-01-23T06:01:26.488Z,13.90
2023-01-23T06:04:29.061Z,12.90
2023-01-23T06:07:22.648Z,14.17
2023-01-23T06:09:53.248Z,17.53
2023-01-23T06:12:20.879Z,14.97
2023-01-23T06:14:48.840Z,13.37
2023-01-23T06:17:16.720Z,12.83
2023-01-23T06:19:44.411Z,12.60
2023-01-23T06:22:12.422Z,15.27
2023-01-23T06:24:58.049Z,10.50
2023-01-23T06:27:25.676Z,20.40
2023-01-23T06:29:53.194Z,16.50
2023-01-23T06:32:23.458Z,11.50
2023-01-23T06:34:52.074Z,13.57
2023-01-23T06:37:19.584Z,14.23
2023-01-23T06:39:47.107Z,14.23
2023-01-23T06:42:16.501Z,13.13
2023-01-23T06:44:48.587Z,15.33
2023-01-23T06:47:16.762Z,14.33
2023-01-23T06:49:46.282Z,12.67
2023-01-23T06:52:13.881Z,12.13
2023-01-23T06:54:43.271Z,15.13
2023-01-23T06:57:13.070Z,13.77
2023-01-23T06:59:41.526Z,16.27
2023-01-23T07:02:14.455Z,15.50
2023-01-23T07:04:52.435Z,14.80
2023-01-23T07:07:20.860Z,16.90
2023-01-23T07:09:50.113Z,16.87
2023-01-23T07:12:27.027Z,18.57
2023-01-23T07:14:54.644Z,13.97
2023-01-23T07:17:32.532Z,21.63
2023-01-23T07:20:00.327Z,12.40
2023-01-23T07:22:28.331Z,15.83
2023-01-23T07:24:55.897Z,12.93
2023-01-23T07:27:23.344Z,16.90
2023-01-23T07:29:52.005Z,15.83
2023-01-23T07:32:19.527Z,14.70
2023-01-23T07:34:46.955Z,15.40
2023-01-23T07:37:14.495Z,18.73
2023-01-23T07:39:41.968Z,15.33
2023-01-23T07:42:10.280Z,10.47
2023-01-23T07:44:41.877Z,17.23
2023-01-23T07:47:09.345Z,17.73
2023-01-23T07:49:36.826Z,14.87
2023-01-23T07:52:05.442Z,12.90
2023-01-23T07:54:33.131Z,15.87
2023-01-23T07:57:00.731Z,15.20
2023-01-23T07:59:28.176Z,13.77
2023-01-23T08:01:55.661Z,14.63
2023-01-23T08:04:23.123Z,12.17
2023-01-23T08:06:50.638Z,14.43
2023-01-23T08:09:18.444Z,14.87
2023-01-23T08:11:45.942Z,12.80
2023-01-23T08:14:13.478Z,16.23
2023-01-23T08:16:41.125Z,14.83
2023-01-23T08:19:09.198Z,13.40
2023-01-23T08:21:36.887Z,14.37
2023-01-23T08:24:05.103Z,15.27
2023-01-23T08:26:33.505Z,13.53
2023-01-23T08:29:04.153Z,14.77
2023-01-23T08:31:31.691Z,17.03
2023-01-23T08:33:59.371Z,15.23
2023-01-23T08:36:27.375Z,11.67
2023-01-23T08:38:56.611Z,16.13
2023-01-23T08:41:24.221Z,15.17
2023-01-23T08:43:51.751Z,14.17
2023-01-23T08:46:19.165Z,11.53
2023-01-23T08:48:46.589Z,11.57
2023-01-23T08:51:14.865Z,16.90
2023-01-23T08:53:42.678Z,14.33
2023-01-23T08:56:19.349Z,13.20
2023-01-23T08:58:47.323Z,21.67
2023-01-23T09:01:23.277Z,14.97
2023-01-23T09:03:51.313Z,17.27
2023-01-23T09:06:21.513Z,15.70
2023-01-23T09:08:49.401Z,17.70
2023-01-23T09:11:17.951Z,14.50
2023-01-23T09:13:47.561Z,16.00
2023-01-23T09:16:16.186Z,20.23
2023-01-23T09:18:43.999Z,16.70
2023-01-23T09:21:16.333Z,17.67
2023-01-23T09:23:45.440Z,15.13
2023-01-23T09:26:15.202Z,15.23
2023-01-23T09:28:43.680Z,18.93
2023-01-23T09:31:14.753Z,15.33
2023-01-23T09:33:42.900Z,16.23
2023-01-23T09:36:10.798Z,14.47
2023-01-23T09:38:38.701Z,14.53
2023-01-23T09:41:20.684Z,16.00
2023-01-23T09:44:17.216Z,17.57
2023-01-23T09:46:56.060Z,15.27
2023-01-23T09:49:50.259Z,12.83
2023-01-23T09:52:26.437Z,13.83
2023-01-23T09:55:22.692Z,20.40
2023-01-23T09:58:01.136Z,12.87
2023-01-23T10:00:34.099Z,13.77
2023-01-23T10:03:06.351Z,17.07
2023-01-23T10:05:50.143Z,15.17
2023-01-23T10:08:42.023Z,13.73
2023-01-23T10:11:17.969Z,13.47
2023-01-23T10:14:17.416Z,20.70
2023-01-23T10:17:29.074Z,14.27
2023-01-23T10:20:32.604Z,22.47
2023-01-23T10:23:44.899Z,16.40
2023-01-23T10:26:38.890Z,13.93
2023-01-23T10:29:37.151Z,15.60
2023-01-23T10:32:09.079Z,15.00
2023-01-23T10:34:59.743Z,15.00
2023-01-23T10:38:09.907Z,15.27
2023-01-23T10:40:56.396Z,17.57
2023-01-23T10:43:26.302Z,14.70
2023-01-23T10:45:54.053Z,20.87
2023-01-23T10:48:52.118Z,15.23
2023-01-23T10:51:37.377Z,25.83
2023-01-23T10:54:08.479Z,23.00
2023-01-23T10:56:47.838Z,20.47
2023-01-23T11:00:00.505Z,14.97
2023-01-23T11:02:41.054Z,16.93
2023-01-23T11:05:52.579Z,16.53
2023-01-23T11:08:29.305Z,19.47
2023-01-23T11:11:16.676Z,24.73
2023-01-23T11:13:46.996Z,15.17
2023-01-23T11:16:22.093Z,19.20
2023-01-23T11:19:08.315Z,23.00
2023-01-23T11:21:59.712Z,19.97
2023-01-23T11:24:40.697Z,19.07
2023-01-23T11:27:26.483Z,16.50
2023-01-23T11:30:20.443Z,21.50
2023-01-23T11:33:00.520Z,14.63
2023-01-23T11:36:07.655Z,16.27
2023-01-23T11:38:52.785Z,11.37
2023-01-23T11:41:31.045Z,15.67
2023-01-23T11:43:58.980Z,14.50
2023-01-23T11:46:47.800Z,18.27
2023-01-23T11:49:46.107Z,17.53
2023-01-23T11:52:34.822Z,15.63
2023-01-23T11:55:20.874Z,16.90
2023-01-23T11:57:54.233Z,12.17
2023-01-23T12:00:44.020Z,15.00
2023-01-23T12:04:22.511Z,15.20
2023-01-23T12:07:23.280Z,13.63
2023-01-23T12:10:23.864Z,17.63
2023-01-23T12:13:16.716Z,12.10
2023-01-23T12:16:08.638Z,12.97
2023-01-23T12:18:41.664Z,14.23
2023-01-23T12:21:42.128Z,10.53
2023-01-23T12:25:05.556Z,11.57
2023-01-23T12:27:48.370Z,11.80
2023-01-23T12:30:29.591Z,19.47
2023-01-23T12:34:01.995Z,9.70
2023-01-23T12:37:22.241Z,9.50
2023-01-23T12:40:22.511Z,10.97
2023-01-23T12:43:36.125Z,14.53
2023-01-23T12:46:22.511Z,12.13
2023-01-23T12:49:02.677Z,14.60
2023-01-23T12:51:38.021Z,14.33
2023-01-23T12:54:15.657Z,12.03
2023-01-23T12:56:44.909Z,11.43
2023-01-23T13:00:01.819Z,19.07
2023-01-23T13:02:44.771Z,15.07
2023-01-23T13:05:29.695Z,15.43
2023-01-23T13:08:57.997Z,13.27
2023-01-23T13:11:44.970Z,14.13
2023-01-23T13:14:31.501Z,12.57
2023-01-23T13:17:02.877Z,12.77
2023-01-23T13:19:52.063Z,20.13
2023-01-23T13:22:32.283Z,12.70
2023-01-23T13:25:18.442Z,12.83
2023-01-23T13:28:00.946Z,15.10
2023-01-23T13:30:36.067Z,15.90
2023-01-23T13:33:06.281Z,14.33
2023-01-23T13:35:44.667Z,17.23
2023-01-23T13:38:37.432Z,14.43
2023-01-23T13:41:05.054Z,15.80
2023-01-23T13:44:20.242Z,16.53
2023-01-23T14:22:57.977Z,17.50
2023-01-23T14:25:26.317Z,13.23
2023-01-23T14:28:06.256Z,13.03
2023-01-23T14:30:36.451Z,18.37
2023-01-23T14:33:16.146Z,14.20
2023-01-23T14:35:44.162Z,12.17
2023-01-23T14:38:31.335Z,14.23
2023-01-23T14:40:59.221Z,15.13
2023-01-23T14:43:29.605Z,13.40
2023-01-23T14:46:19.497Z,16.10
2023-01-23T14:48:54.634Z,12.33
2023-01-23T14:51:26.347Z,13.50
2023-01-23T14:54:05.177Z,12.40
2023-01-23T14:56:40.139Z,11.63
2023-01-23T14:59:21.256Z,12.67
2023-01-23T15:02:01.840Z,14.93
2023-01-23T15:04:31.431Z,15.87
2023-01-23T15:07:02.067Z,12.17
2023-01-23T15:09:41.664Z,12.17
2023-01-23T15:12:17.763Z,10.60
2023-01-23T15:14:46.053Z,11.60
2023-01-23T15:17:19.151Z,10.47
2023-01-23T15:19:57.753Z,12.03
2023-01-23T15:22:29.631Z,11.70
2023-01-23T15:24:58.004Z,12.03
2023-01-23T15:27:49.118Z,11.40
2023-01-23T15:31:05.804Z,11.23
2023-01-23T15:33:41.262Z,10.27
2023-01-23T15:36:27.760Z,11.73
2023-01-23T15:38:57.837Z,11.53
2023-01-23T15:41:50.827Z,28.90
2023-01-23T15:44:22.251Z,23.57
2023-01-23T15:46:49.941Z,16.60
2023-01-23T15:49:25.273Z,16.83
2023-01-23T15:51:59.899Z,11.93
2023-01-23T15:54:37.171Z,12.23
2023-01-23T15:57:07.938Z,10.73
2023-01-23T15:59:37.602Z,13.13
2023-01-23T16:02:12.832Z,15.10
2023-01-23T16:04:42.867Z,9.93
2023-01-23T16:07:34.513Z,14.40
2023-01-23T16:10:21.106Z,16.47
2023-01-23T16:12:51.685Z,11.77
2023-01-23T16:15:48.640Z,12.70
2023-01-23T16:18:16.682Z,15.03
2023-01-23T16:20:46.145Z,16.07
2023-01-23T16:23:18.430Z,11.00
2023-01-23T16:25:46.749Z,12.40
2023-01-23T16:28:20.169Z,12.80
2023-01-23T16:30:49.766Z,11.97
2023-01-23T16:33:17.747Z,12.03
2023-01-23T16:35:46.599Z,12.43
2023-01-23T16:38:31.000Z,13.70
2023-01-23T16:41:03.062Z,11.73
2023-01-23T16:43:31.275Z,11.50
2023-01-23T16:45:58.888Z,13.43
2023-01-23T16:48:28.496Z,13.57
2023-01-23T16:51:25.446Z,17.67
2023-01-23T16:54:00.757Z,14.00
2023-01-23T16:56:40.108Z,15.50
2023-01-23T16:59:17.299Z,14.43
2023-01-23T17:01:48.804Z,13.53
2023-01-23T17:04:21.075Z,15.23
2023-01-23T17:07:11.922Z,13.47
2023-01-23T17:09:39.517Z,14.73
2023-01-23T17:12:09.774Z,13.67
2023-01-23T17:14:58.011Z,13.43
2023-01-23T17:17:35.481Z,11.77
2023-01-23T17:20:05.651Z,12.50
2023-01-23T17:22:40.765Z,14.33
2023-01-23T17:25:24.188Z,13.97
2023-01-23T17:28:11.531Z,13.67
2023-01-23T17:30:42.111Z,18.90
2023-01-23T17:33:22.823Z,16.10
2023-01-23T17:35:53.242Z,14.93
2023-01-23T17:38:33.413Z,15.77
2023-01-23T17:41:04.743Z,16.27
2023-01-23T17:43:34.180Z,10.87
2023-01-23T17:46:02.346Z,11.90
2023-01-23T17:48:33.079Z,13.20
2023-01-23T17:51:01.356Z,15.07
2023-01-23T17:53:30.844Z,10.40
2023-01-23T17:55:58.485Z,13.67
2023-01-23T17:58:26.341Z,14.17
2023-01-23T18:00:58.981Z,13.93
2023-01-23T18:03:27.794Z,13.87
2023-01-23T18:05:55.868Z,15.47
2023-01-23T18:08:23.590Z,16.50
2023-01-23T18:10:57.257Z,18.60
2023-01-23T18:13:48.867Z,30.73
2023-01-23T18:16:27.199Z,21.70
2023-01-23T18:19:14.174Z,15.20
2023-01-23T18:21:43.319Z,24.83
2023-01-23T18:24:30.650Z,19.43
2023-01-23T18:27:25.241Z,25.27
2023-01-23T18:30:17.892Z,20.00
2023-01-23T18:33:12.691Z,25.73
2023-01-23T18:36:16.733Z,29.20
2023-01-23T18:39:05.723Z,24.57
2023-01-23T18:41:33.928Z,17.83
2023-01-23T18:44:15.764Z,20.10
2023-01-23T18:46:47.128Z,22.57
2023-01-23T18:49:32.732Z,23.67
2023-01-23T18:52:14.789Z,27.37
2023-01-23T18:55:07.591Z,24.53
2023-01-23T18:58:09.251Z,22.00
2023-01-23T19:00:47.583Z,26.30
2023-01-23T19:03:21.063Z,21.93
2023-01-23T19:05:51.006Z,18.97
2023-01-23T19:08:41.144Z,15.10
2023-01-23T19:11:39.350Z,16.53
2023-01-23T19:14:36.453Z,17.27
2023-01-23T19:17:35.909Z,25.53
2023-01-23T19:20:49.404Z,30.10
2023-01-23T19:24:03.325Z,49.53
2023-01-23T19:26:57.330Z,21.93
2023-01-23T19:29:27.897Z,11.57
2023-01-23T19:32:05.177Z,15.33
2023-01-23T19:34:35.959Z,19.13
2023-01-23T19:37:07.572Z,13.07
2023-01-23T19:39:57.701Z,17.00
2023-01-23T19:42:26.914Z,20.33
2023-01-23T19:44:56.135Z,28.47
2023-01-23T19:47:28.061Z,34.83
2023-01-23T19:49:58.871Z,32.70
2023-01-23T19:52:27.756Z,24.30
2023-01-23T19:54:58.685Z,28.53
2023-01-23T19:57:30.289Z,25.47
2023-01-23T20:00:04.181Z,12.87
2023-01-23T20:02:39.970Z,29.20
2023-01-23T20:05:08.939Z,23.30
2023-01-23T20:07:39.683Z,21.60
2023-01-23T20:10:11.035Z,18.43
2023-01-23T20:12:52.864Z,22.10
2023-01-23T20:15:24.444Z,17.70
2023-01-23T20:17:56.380Z,17.40
2023-01-23T20:20:29.877Z,17.33
2023-01-23T20:23:01.000Z,35.23
2023-01-23T20:25:31.604Z,14.93
2023-01-23T20:28:02.482Z,24.53
2023-01-23T20:30:33.759Z,27.80
2023-01-23T20:33:04.172Z,24.27
2023-01-23T20:35:33.022Z,18.23
2023-01-23T20:38:00.905Z,19.83
2023-01-23T20:40:29.980Z,22.77
2023-01-23T20:43:00.251Z,20.67
2023-01-23T20:45:28.456Z,22.00
2023-01-23T20:47:59.347Z,13.97
2023-01-23T20:50:27.662Z,19.27
2023-01-23T20:53:14.892Z,18.03
2023-01-23T20:55:42.513Z,12.57
2023-01-23T20:58:28.872Z,11.60
2023-01-23T21:00:56.888Z,34.77
2023-01-23T21:03:25.182Z,16.20
2023-01-23T21:05:53.233Z,18.23
2023-01-23T21:08:20.956Z,34.40
2023-01-23T21:10:48.883Z,12.33
2023-01-23T21:13:16.563Z,20.73
2023-01-23T21:15:45.077Z,14.87
2023-01-23T21:18:13.325Z,13.23
2023-01-23T21:20:48.259Z,14.60
2023-01-23T21:23:15.832Z,7.13
2023-01-23T21:25:46.064Z,10.60
2023-01-23T21:28:21.422Z,13.10
2023-01-23T21:30:51.535Z,8.20
2023-01-23T21:33:19.725Z,11.23
2023-01-23T21:35:55.301Z,12.93
2023-01-23T21:38:22.994Z,12.43
2023-01-23T21:40:50.470Z,10.07
2023-01-23T21:43:18.024Z,17.37
2023-01-23T21:45:45.633Z,8.07
2023-01-23T21:48:13.661Z,8.97
2023-01-23T21:50:42.579Z,7.70
2023-01-23T21:53:10.175Z,9.73
2023-01-23T21:55:39.246Z,8.27
2023-01-23T21:58:08.510Z,10.13
2023-01-23T22:00:54.463Z,5.73
2023-01-23T22:03:22.137Z,8.93
2023-01-23T22:05:51.035Z,9.23
2023-01-23T22:08:18.552Z,8.17
2023-01-23T22:10:46.046Z,9.03
2023-01-23T22:13:13.504Z,7.03
2023-01-23T22:15:40.960Z,7.60
2023-01-23T22:18:08.395Z,8.40
2023-01-23T22:20:38.773Z,6.03
2023-01-23T22:23:06.352Z,7.17
2023-01-23T22:25:33.910Z,6.37
2023-01-23T22:28:01.378Z,6.33
2023-01-23T22:30:28.936Z,4.70
2023-01-23T22:32:57.870Z,7.60
2023-01-23T22:35:25.327Z,6.03
2023-01-23T22:37:52.823Z,6.80
2023-01-23T22:40:20.405Z,7.20
2023-01-23T22:42:50.571Z,7.13
2023-01-23T22:45:18.081Z,8.10
2023-01-23T22:47:46.879Z,6.93
2023-01-23T22:50:14.590Z,4.93
2023-01-23T22:52:43.457Z,8.47
2023-01-23T22:55:11.640Z,6.27
2023-01-23T22:57:39.828Z,6.77
2023-01-23T23:00:13.161Z,8.03
2023-01-23T23:02:41.156Z,8.40
2023-01-23T23:05:10.276Z,7.10
2023-01-23T23:07:38.245Z,8.17
2023-01-23T23:10:08.560Z,8.20
2023-01-23T23:12:36.192Z,11.53
2023-01-23T23:15:04.248Z,8.73
2023-01-23T23:17:31.881Z,8.00
2023-01-23T23:19:59.670Z,7.87
2023-01-23T23:22:27.160Z,10.23
2023-01-23T23:24:54.753Z,7.20
2023-01-23T23:27:23.202Z,7.20
2023-01-23T23:29:50.676Z,9.67
2023-01-23T23:32:18.143Z,8.50
2023-01-23T23:34:45.719Z,8.93
2023-01-23T23:37:13.196Z,8.73
2023-01-23T23:39:40.698Z,8.40
2023-01-23T23:42:08.127Z,8.73
2023-01-23T23:44:35.558Z,7.33
2023-01-23T23:47:05.784Z,7.57
2023-01-23T23:49:33.400Z,7.37
2023-01-23T23:52:00.997Z,10.07
2023-01-23T23:54:28.478Z,8.13
2023-01-23T23:56:55.970Z,7.83
2023-01-23T23:59:23.750Z,8.93
